Time;durP1;ratioP1;P1;durP2;ratioP2;P2;SDS_P1;SDS_P2;PMS_P1;PMS_P2;Temp;Humidity;BMP_temperature;BMP_pressure;BME280_temperature;BME280_humidity;BME280_pressure;Samples;Min_cycle;Max_cycle;Signal;HPM_P1;HPM_P2
2022/01/01 00:03:47;;;;;;;16.02;13.05;;;;;;;;;;10414426;28;20468;-81
2022/01/01 00:08:48;;;;;;;10.93;8.60;;;;;;;;;;10418715;28;20498;-81
2022/01/01 00:13:49;;;;;;;8.68;7.32;;;;;;;;;;10415424;28;20056;-81
2022/01/01 00:18:50;;;;;;;13.02;8.82;;;;;;;;;;10420300;28;20034;-80
2022/01/01 00:23:51;;;;;;;14.63;11.07;;;;;;;;;;10419428;28;20022;-81
2022/01/01 00:28:52;;;;;;;14.02;11.02;;;;;;;;;;10418803;28;20036;-81
2022/01/01 00:33:53;;;;;;;14.60;10.18;;;;;;;;;;10419082;28;20014;-81
2022/01/01 00:38:54;;;;;;;12.35;8.07;;;;;;;;;;10418319;28;20055;-81
2022/01/01 00:43:55;;;;;;;11.13;8.82;;;;;;;;;;10416889;28;20018;-80
2022/01/01 00:48:56;;;;;;;11.82;9.25;;;;;;;;;;10417376;28;20018;-81
2022/01/01 00:53:57;;;;;;;9.52;7.40;;;;;;;;;;10419459;28;20034;-81
2022/01/01 00:58:58;;;;;;;10.30;6.45;;;;;;;;;;10408782;28;20050;-80
2022/01/01 01:03:59;;;;;;;9.98;6.45;;;;;;;;;;10418597;28;20026;-81
2022/01/01 01:09:01;;;;;;;11.48;7.03;;;;;;;;;;10420330;28;20030;-81
2022/01/01 01:14:07;;;;;;;11.38;7.22;;;;;;;;;;10420506;28;20030;-81
2022/01/01 01:19:08;;;;;;;9.63;6.40;;;;;;;;;;10420114;28;20056;-81
2022/01/01 01:24:10;;;;;;;13.50;7.93;;;;;;;;;;10419282;28;20060;-80
2022/01/01 01:29:11;;;;;;;12.73;7.90;;;;;;;;;;10418805;28;20046;-81
2022/01/01 01:34:12;;;;;;;9.88;6.30;;;;;;;;;;10419612;28;20041;-80
2022/01/01 01:39:13;;;;;;;12.93;8.05;;;;;;;;;;10420046;28;20021;-80
2022/01/01 01:44:47;;;;;;;14.60;8.10;;;;;;;;;;10420144;28;20029;-80
2022/01/01 01:49:48;;;;;;;9.85;6.80;;;;;;;;;;10425246;28;20053;-79
2022/01/01 01:54:49;;;;;;;9.45;6.55;;;;;;;;;;10418798;28;20006;-80
2022/01/01 01:59:51;;;;;;;14.70;7.63;;;;;;;;;;10413280;28;20030;-81
2022/01/01 02:04:52;;;;;;;10.15;6.45;;;;;;;;;;10397329;28;20026;-81
2022/01/01 02:09:53;;;;;;;11.10;6.55;;;;;;;;;;10395671;28;20034;-81
2022/01/01 02:20:01;;;;;;;9.43;6.38;;;;;;;;;;10403612;28;20093;-81
2022/01/01 02:25:02;;;;;;;10.05;6.38;;;;;;;;;;10394179;28;20018;-81
2022/01/01 02:30:08;;;;;;;7.22;5.22;;;;;;;;;;10394957;28;20022;-81
2022/01/01 02:35:10;;;;;;;9.75;5.90;;;;;;;;;;10396148;28;20029;-81
2022/01/01 02:40:11;;;;;;;10.00;6.72;;;;;;;;;;10393398;28;20052;-81
2022/01/01 02:45:14;;;;;;;9.15;5.72;;;;;;;;;;10391968;28;20040;-80
2022/01/01 02:50:18;;;;;;;10.05;6.70;;;;;;;;;;10391552;28;20388;-81
2022/01/01 02:55:19;;;;;;;8.68;5.70;;;;;;;;;;10391673;28;20022;-81
2022/01/01 03:00:20;;;;;;;8.57;5.68;;;;;;;;;;10392583;28;20026;-81
2022/01/01 03:05:21;;;;;;;7.55;5.18;;;;;;;;;;10398425;28;20045;-81
2022/01/01 03:10:22;;;;;;;7.75;5.22;;;;;;;;;;10399842;28;20026;-81
2022/01/01 03:15:23;;;;;;;8.88;5.93;;;;;;;;;;10409944;28;20094;-80
2022/01/01 03:20:24;;;;;;;6.85;4.82;;;;;;;;;;10403553;28;20034;-81
2022/01/01 03:25:25;;;;;;;10.45;6.68;;;;;;;;;;10398010;28;20026;-81
2022/01/01 03:30:26;;;;;;;8.10;5.40;;;;;;;;;;10398661;28;20033;-80
2022/01/01 03:35:27;;;;;;;11.00;5.97;;;;;;;;;;10396242;28;20058;-81
2022/01/01 03:40:28;;;;;;;9.40;5.95;;;;;;;;;;10397190;28;20128;-81
2022/01/01 03:45:29;;;;;;;12.63;7.25;;;;;;;;;;10396962;28;20101;-81
2022/01/01 03:50:30;;;;;;;9.88;6.40;;;;;;;;;;10397163;28;20025;-80
2022/01/01 03:55:31;;;;;;;10.50;6.57;;;;;;;;;;10396648;28;20033;-81
2022/01/01 04:00:32;;;;;;;11.60;6.70;;;;;;;;;;10397299;28;20479;-81
2022/01/01 04:05:35;;;;;;;12.25;7.35;;;;;;;;;;10397444;28;20093;-81
2022/01/01 04:10:39;;;;;;;8.68;5.90;;;;;;;;;;10398142;28;20022;-81
2022/01/01 04:15:41;;;;;;;11.38;6.65;;;;;;;;;;10395611;28;20026;-81
2022/01/01 04:20:44;;;;;;;14.10;6.43;;;;;;;;;;10398431;28;20018;-80
2022/01/01 04:25:47;;;;;;;10.32;5.93;;;;;;;;;;10396542;28;20053;-80
2022/01/01 04:30:48;;;;;;;10.05;6.22;;;;;;;;;;10397317;28;20141;-81
2022/01/01 04:35:49;;;;;;;8.85;5.47;;;;;;;;;;10396262;28;20030;-81
2022/01/01 04:40:50;;;;;;;11.43;5.97;;;;;;;;;;10395268;28;20034;-81
2022/01/01 04:45:51;;;;;;;8.05;5.30;;;;;;;;;;10396815;28;20029;-81
2022/01/01 04:50:52;;;;;;;8.50;5.15;;;;;;;;;;10396435;28;20049;-81
2022/01/01 04:55:53;;;;;;;10.35;6.20;;;;;;;;;;10396860;28;20041;-81
2022/01/01 05:00:54;;;;;;;8.55;5.57;;;;;;;;;;10399157;28;20022;-80
2022/01/01 05:05:55;;;;;;;7.88;4.95;;;;;;;;;;10398806;28;20055;-80
2022/01/01 05:10:56;;;;;;;6.35;4.47;;;;;;;;;;10401171;28;20045;-80
2022/01/01 05:15:57;;;;;;;8.43;5.10;;;;;;;;;;10398268;28;20026;-81
2022/01/01 05:20:58;;;;;;;9.05;5.50;;;;;;;;;;10404714;28;20022;-81
2022/01/01 05:25:59;;;;;;;10.63;6.70;;;;;;;;;;10410102;28;20034;-80
2022/01/01 05:31:00;;;;;;;13.82;7.43;;;;;;;;;;10396518;28;20018;-81
2022/01/01 05:36:01;;;;;;;8.05;5.03;;;;;;;;;;10396168;28;20030;-80
2022/01/01 05:41:02;;;;;;;9.45;6.32;;;;;;;;;;10394027;28;20034;-83
2022/01/01 05:46:06;;;;;;;6.68;4.88;;;;;;;;;;10394823;28;20030;-83
2022/01/01 05:51:08;;;;;;;11.48;5.95;;;;;;;;;;10395919;28;20101;-81
2022/01/01 05:56:09;;;;;;;8.10;5.28;;;;;;;;;;10411532;28;20026;-79
2022/01/01 06:01:10;;;;;;;9.23;4.93;;;;;;;;;;10416756;28;20037;-79
2022/01/01 06:06:11;;;;;;;8.10;5.00;;;;;;;;;;10396661;28;20067;-81
2022/01/01 06:11:12;;;;;;;6.82;4.22;;;;;;;;;;10393777;28;20044;-81
2022/01/01 06:16:13;;;;;;;11.80;5.85;;;;;;;;;;10391700;28;20029;-81
2022/01/01 06:21:14;;;;;;;6.53;4.10;;;;;;;;;;10393442;28;20081;-81
2022/01/01 06:26:15;;;;;;;7.10;4.40;;;;;;;;;;10392322;28;20022;-81
2022/01/01 06:31:16;;;;;;;6.07;3.95;;;;;;;;;;10392314;28;20029;-81
2022/01/01 06:36:17;;;;;;;7.53;4.32;;;;;;;;;;10392089;28;20110;-81
2022/01/01 06:41:19;;;;;;;8.40;4.88;;;;;;;;;;10391632;28;20101;-81
2022/01/01 06:46:20;;;;;;;7.95;4.07;;;;;;;;;;10392316;28;20037;-81
2022/01/01 06:51:22;;;;;;;6.15;3.80;;;;;;;;;;10394282;28;20042;-82
2022/01/01 06:56:23;;;;;;;7.65;4.05;;;;;;;;;;10390327;28;20061;-81
2022/01/01 07:01:24;;;;;;;6.72;4.18;;;;;;;;;;10392769;28;20033;-81
2022/01/01 07:06:25;;;;;;;10.27;4.70;;;;;;;;;;10392176;28;20022;-80
2022/01/01 07:11:26;;;;;;;6.03;3.70;;;;;;;;;;10391068;28;20029;-81
2022/01/01 07:16:27;;;;;;;6.13;3.60;;;;;;;;;;10390752;28;20117;-81
2022/01/01 07:21:28;;;;;;;7.78;3.13;;;;;;;;;;10391537;28;20043;-81
2022/01/01 07:26:29;;;;;;;9.63;4.35;;;;;;;;;;10388683;28;20029;-80
2022/01/01 07:31:30;;;;;;;6.53;3.70;;;;;;;;;;10407555;28;20014;-81
2022/01/01 07:36:31;;;;;;;7.72;4.00;;;;;;;;;;10390305;28;20026;-80
2022/01/01 07:41:32;;;;;;;6.78;3.83;;;;;;;;;;10390644;28;20057;-81
2022/01/01 07:46:34;;;;;;;6.22;3.33;;;;;;;;;;10389646;28;20038;-81
2022/01/01 07:51:35;;;;;;;6.72;3.97;;;;;;;;;;10394702;28;20430;-80
2022/01/01 07:56:36;;;;;;;5.60;3.10;;;;;;;;;;10396656;28;20125;-81
2022/01/01 08:01:37;;;;;;;7.53;3.35;;;;;;;;;;10396364;28;20474;-81
2022/01/01 08:06:38;;;;;;;5.80;2.83;;;;;;;;;;10395808;28;20026;-81
2022/01/01 08:11:39;;;;;;;6.05;2.90;;;;;;;;;;10396838;28;20026;-81
2022/01/01 08:16:59;;;;;;;4.82;2.70;;;;;;;;;;10395889;28;20030;-81
2022/01/01 08:22:00;;;;;;;5.97;2.87;;;;;;;;;;10396905;28;20548;-81
2022/01/01 08:27:01;;;;;;;6.22;3.10;;;;;;;;;;10396875;28;20367;-81
2022/01/01 08:32:02;;;;;;;5.05;2.75;;;;;;;;;;10395414;28;20018;-81
2022/01/01 08:37:03;;;;;;;3.88;2.30;;;;;;;;;;10396487;28;20034;-81
2022/01/01 08:42:05;;;;;;;6.18;2.85;;;;;;;;;;10394798;28;20029;-81
2022/01/01 08:47:06;;;;;;;6.45;2.78;;;;;;;;;;10395591;28;20204;-81
2022/01/01 08:52:11;;;;;;;10.60;6.00;;;;;;;;;;10400735;28;20057;-82
2022/01/01 08:57:12;;;;;;;3.80;2.42;;;;;;;;;;10406000;28;20026;-81
2022/01/01 09:02:31;;;;;;;6.60;2.80;;;;;;;;;;10407665;28;20037;-81
2022/01/01 09:07:43;;;;;;;6.78;2.70;;;;;;;;;;10407858;28;20033;-83
2022/01/01 09:12:49;;;;;;;4.20;2.70;;;;;;;;;;10407276;28;20037;-83
2022/01/01 09:17:54;;;;;;;4.65;2.80;;;;;;;;;;10405211;28;20026;-83
2022/01/01 09:23:04;;;;;;;8.20;3.10;;;;;;;;;;10406882;28;20025;-82
2022/01/01 09:28:27;;;;;;;5.90;2.72;;;;;;;;;;10408585;28;20026;-83
2022/01/01 09:33:52;;;;;;;4.93;2.63;;;;;;;;;;10408159;27;20041;-82
2022/01/01 09:38:59;;;;;;;5.07;2.67;;;;;;;;;;10413248;28;20034;-79
2022/01/01 09:44:05;;;;;;;7.28;3.30;;;;;;;;;;10402824;28;20048;-80
2022/01/01 09:49:15;;;;;;;5.72;2.53;;;;;;;;;;10405509;28;20038;-81
2022/01/01 09:54:34;;;;;;;4.45;2.30;;;;;;;;;;10420003;28;20097;-79
2022/01/01 09:59:37;;;;;;;4.35;2.10;;;;;;;;;;10402448;28;20525;-80
2022/01/01 10:04:50;;;;;;;4.47;2.20;;;;;;;;;;10404126;28;20079;-81
2022/01/01 10:10:10;;;;;;;4.07;2.00;;;;;;;;;;10403670;28;20030;-81
2022/01/01 10:15:37;;;;;;;2.50;1.73;;;;;;;;;;10406343;28;20022;-81
2022/01/01 10:21:05;;;;;;;5.53;2.42;;;;;;;;;;10402439;28;20038;-80
2022/01/01 10:31:35;;;;;;;5.05;2.08;;;;;;;;;;10402782;28;20082;-81
2022/01/01 10:36:57;;;;;;;3.85;2.10;;;;;;;;;;10397843;28;20045;-81
2022/01/01 10:42:07;;;;;;;3.60;1.80;;;;;;;;;;10401989;28;20034;-81
2022/01/01 10:47:27;;;;;;;5.32;2.08;;;;;;;;;;10400483;28;20033;-81
2022/01/01 10:52:29;;;;;;;6.77;2.70;;;;;;;;;;10395567;28;20026;-82
2022/01/01 10:58:00;;;;;;;4.32;1.98;;;;;;;;;;10396870;28;20022;-81
2022/01/01 11:03:17;;;;;;;5.10;2.10;;;;;;;;;;10397209;28;20028;-81
2022/01/01 11:08:21;;;;;;;4.70;1.90;;;;;;;;;;10397599;28;20038;-81
2022/01/01 11:14:09;;;;;;;5.47;2.13;;;;;;;;;;10396076;28;20051;-81
2022/01/01 11:18:56;;;;;;;3.83;2.13;;;;;;;;;;10397106;28;20040;-81
2022/01/01 11:23:57;;;;;;;4.97;2.08;;;;;;;;;;10401819;28;20536;-81
2022/01/01 11:29:17;;;;;;;5.10;2.00;;;;;;;;;;10405145;28;20068;-80
2022/01/01 11:34:18;;;;;;;4.30;1.83;;;;;;;;;;10404100;28;20113;-81
2022/01/01 11:39:26;;;;;;;4.03;1.73;;;;;;;;;;10407713;28;20034;-81
2022/01/01 11:44:36;;;;;;;5.47;2.13;;;;;;;;;;10412839;28;20472;-81
2022/01/01 11:49:40;;;;;;;3.08;1.50;;;;;;;;;;10404475;28;20034;-81
2022/01/01 11:54:45;;;;;;;4.82;2.00;;;;;;;;;;10405549;28;20119;-81
2022/01/01 12:00:03;;;;;;;4.10;1.90;;;;;;;;;;10403542;28;20037;-81
2022/01/01 12:05:29;;;;;;;3.22;1.50;;;;;;;;;;10406940;28;20087;-82
2022/01/01 12:10:33;;;;;;;5.35;2.08;;;;;;;;;;10406109;28;20056;-81
2022/01/01 12:15:39;;;;;;;5.63;1.80;;;;;;;;;;10405938;28;20134;-81
2022/01/01 12:20:51;;;;;;;4.15;1.50;;;;;;;;;;10404949;28;20032;-82
2022/01/01 12:25:54;;;;;;;3.67;1.60;;;;;;;;;;10402307;28;20029;-81
2022/01/01 12:30:58;;;;;;;4.57;1.48;;;;;;;;;;10401439;28;20030;-81
2022/01/01 12:35:59;;;;;;;3.13;1.45;;;;;;;;;;10397220;28;20025;-82
2022/01/01 12:41:12;;;;;;;2.97;1.80;;;;;;;;;;10391576;28;20120;-82
2022/01/01 12:46:14;;;;;;;2.92;1.45;;;;;;;;;;10388758;28;20063;-82
2022/01/01 12:51:23;;;;;;;4.60;1.70;;;;;;;;;;10389902;28;20116;-82
2022/01/01 12:56:24;;;;;;;3.65;1.80;;;;;;;;;;10388355;28;20029;-82
2022/01/01 13:01:37;;;;;;;3.03;1.55;;;;;;;;;;10385286;28;20243;-82
2022/01/01 13:06:39;;;;;;;3.13;1.80;;;;;;;;;;10384804;28;20403;-82
2022/01/01 13:11:47;;;;;;;3.25;1.42;;;;;;;;;;10384902;28;20146;-82
2022/01/01 13:16:51;;;;;;;2.22;1.48;;;;;;;;;;10386014;28;20038;-82
2022/01/01 13:21:53;;;;;;;3.33;1.60;;;;;;;;;;10379577;28;20505;-81
2022/01/01 13:26:54;;;;;;;2.58;1.25;;;;;;;;;;10375940;28;20391;-81
2022/01/01 13:31:56;;;;;;;2.70;1.50;;;;;;;;;;10377187;28;20022;-81
2022/01/01 13:37:04;;;;;;;3.15;1.40;;;;;;;;;;10378597;28;20046;-82
2022/01/01 13:42:07;;;;;;;2.40;1.52;;;;;;;;;;10384245;28;20400;-82
2022/01/01 13:47:10;;;;;;;2.72;1.38;;;;;;;;;;10404581;28;20050;-82
2022/01/01 13:52:17;;;;;;;3.17;1.60;;;;;;;;;;10378762;28;20364;-81
2022/01/01 13:57:18;;;;;;;2.60;1.50;;;;;;;;;;10388183;28;20025;-81
2022/01/01 14:02:22;;;;;;;3.53;1.35;;;;;;;;;;10401187;28;20093;-81
2022/01/01 14:07:23;;;;;;;3.80;1.83;;;;;;;;;;10401133;28;20448;-82
2022/01/01 14:12:34;;;;;;;3.05;1.50;;;;;;;;;;10400223;28;20097;-82
2022/01/01 14:17:57;;;;;;;2.88;1.75;;;;;;;;;;10404290;28;20026;-82
2022/01/01 14:22:59;;;;;;;3.50;1.70;;;;;;;;;;10400180;28;20033;-81
2022/01/01 14:28:04;;;;;;;4.68;1.95;;;;;;;;;;10401626;28;20124;-81
2022/01/01 14:33:07;;;;;;;2.42;1.58;;;;;;;;;;10400174;28;20071;-82
2022/01/01 14:38:08;;;;;;;2.55;1.48;;;;;;;;;;10398469;28;20060;-82
2022/01/01 14:43:11;;;;;;;2.53;1.50;;;;;;;;;;10399181;28;20034;-82
2022/01/01 14:48:16;;;;;;;2.20;1.35;;;;;;;;;;10397457;28;20110;-80
2022/01/01 14:53:25;;;;;;;3.88;1.58;;;;;;;;;;10397379;28;20034;-80
2022/01/01 14:58:31;;;;;;;2.58;1.50;;;;;;;;;;10396887;28;20034;-81
2022/01/01 15:03:33;;;;;;;3.10;1.67;;;;;;;;;;10397812;28;20025;-81
2022/01/01 15:08:34;;;;;;;4.47;2.95;;;;;;;;;;10396192;28;20030;-79
2022/01/01 15:13:35;;;;;;;3.67;1.98;;;;;;;;;;10396175;28;20033;-83
2022/01/01 15:18:38;;;;;;;3.00;1.80;;;;;;;;;;10394965;28;20050;-82
2022/01/01 15:23:43;;;;;;;3.08;1.60;;;;;;;;;;10398382;28;20034;-82
2022/01/01 15:28:45;;;;;;;3.40;1.73;;;;;;;;;;10393943;28;20048;-81
2022/01/01 15:33:47;;;;;;;3.22;1.40;;;;;;;;;;10393365;28;20093;-82
2022/01/01 15:38:50;;;;;;;3.65;1.95;;;;;;;;;;10397480;28;20030;-81
2022/01/01 15:43:51;;;;;;;3.30;1.80;;;;;;;;;;10396753;28;20125;-82
2022/01/01 15:48:54;;;;;;;3.85;2.20;;;;;;;;;;10410100;28;20082;-82
2022/01/01 15:53:55;;;;;;;3.55;2.10;;;;;;;;;;10399145;28;20403;-81
2022/01/01 15:58:58;;;;;;;3.28;1.88;;;;;;;;;;10407601;28;20041;-80
2022/01/01 16:04:01;;;;;;;4.20;2.35;;;;;;;;;;10398116;28;20037;-82
2022/01/01 16:09:04;;;;;;;5.53;2.70;;;;;;;;;;10394548;28;20048;-82
2022/01/01 16:14:07;;;;;;;2.17;1.50;;;;;;;;;;10401341;28;20076;-81
2022/01/01 16:19:09;;;;;;;3.97;2.15;;;;;;;;;;10403478;28;20368;-81
2022/01/01 16:24:10;;;;;;;5.25;2.42;;;;;;;;;;10404181;28;20361;-81
2022/01/01 16:29:11;;;;;;;5.53;2.45;;;;;;;;;;10402738;28;20029;-81
2022/01/01 16:34:15;;;;;;;3.22;2.03;;;;;;;;;;10405586;28;20018;-82
2022/01/01 16:39:16;;;;;;;3.17;2.30;;;;;;;;;;10407927;28;20026;-82
2022/01/01 16:44:38;;;;;;;3.78;2.85;;;;;;;;;;10409410;28;20026;-82
2022/01/01 16:49:40;;;;;;;4.00;2.55;;;;;;;;;;10409734;28;20034;-82
2022/01/01 16:54:42;;;;;;;5.60;2.55;;;;;;;;;;10408487;28;20093;-81
2022/01/01 16:59:53;;;;;;;3.33;2.10;;;;;;;;;;10412371;28;20033;-81
2022/01/01 17:05:01;;;;;;;3.38;2.20;;;;;;;;;;10410708;28;20030;-81
2022/01/01 17:10:19;;;;;;;3.40;2.17;;;;;;;;;;10420530;28;20058;-79
2022/01/01 17:15:28;;;;;;;4.68;3.00;;;;;;;;;;10420846;28;20026;-82
2022/01/01 17:21:00;;;;;;;8.07;3.80;;;;;;;;;;10419923;28;20072;-81
2022/01/01 18:33:45;;;;;;;5.60;4.20;;;;;;;;;;10361545;28;20092;-87
2022/01/01 18:38:51;;;;;;;3.47;2.22;;;;;;;;;;10320522;28;20447;-87
2022/01/01 18:44:06;;;;;;;5.20;3.78;;;;;;;;;;10336665;28;20062;-87
2022/01/01 18:49:11;;;;;;;2.85;2.13;;;;;;;;;;10335492;28;20115;-86
2022/01/01 18:54:15;;;;;;;4.35;2.67;;;;;;;;;;10342097;28;20057;-85
2022/01/01 18:59:22;;;;;;;4.32;3.50;;;;;;;;;;10357568;28;20113;-86
2022/01/01 19:04:48;;;;;;;4.28;2.75;;;;;;;;;;10374387;28;20034;-85
2022/01/01 19:09:56;;;;;;;4.43;3.05;;;;;;;;;;10373614;28;20050;-86
2022/01/01 19:15:09;;;;;;;4.05;2.47;;;;;;;;;;10372672;28;20046;-87
2022/01/01 19:20:15;;;;;;;7.67;4.17;;;;;;;;;;10322384;28;20439;-87
2022/01/01 19:25:29;;;;;;;4.53;2.47;;;;;;;;;;10324032;28;20043;-87
2022/01/01 19:30:32;;;;;;;3.92;2.22;;;;;;;;;;10366409;28;20060;-87
2022/01/01 19:35:48;;;;;;;3.47;2.10;;;;;;;;;;10368624;28;20018;-87
2022/01/01 19:40:52;;;;;;;4.10;2.65;;;;;;;;;;10328585;28;20074;-86
2022/01/01 19:45:56;;;;;;;4.93;3.00;;;;;;;;;;10352754;28;20222;-86
2022/01/01 19:51:04;;;;;;;3.25;2.65;;;;;;;;;;10334380;28;20053;-87
2022/01/01 19:56:12;;;;;;;6.28;3.50;;;;;;;;;;10344748;28;20034;-87
2022/01/01 20:01:19;;;;;;;3.80;3.20;;;;;;;;;;10328917;28;20045;-87
2022/01/01 20:06:23;;;;;;;6.50;3.55;;;;;;;;;;10323286;28;20061;-87
2022/01/01 20:11:24;;;;;;;3.72;3.03;;;;;;;;;;10324183;28;20031;-86
2022/01/01 20:16:35;;;;;;;4.57;3.35;;;;;;;;;;10325893;28;20407;-86
2022/01/01 20:21:40;;;;;;;4.13;2.88;;;;;;;;;;10340324;28;20093;-86
2022/01/01 20:26:42;;;;;;;3.75;2.50;;;;;;;;;;10323627;28;20042;-86
2022/01/01 20:31:50;;;;;;;4.22;2.65;;;;;;;;;;10323238;28;20065;-86
2022/01/01 20:36:52;;;;;;;4.43;3.05;;;;;;;;;;10323803;28;20030;-86
2022/01/01 20:41:53;;;;;;;5.90;3.58;;;;;;;;;;10322256;28;20130;-87
2022/01/01 20:46:54;;;;;;;3.88;3.20;;;;;;;;;;10324470;28;20484;-86
2022/01/01 20:51:56;;;;;;;6.38;4.10;;;;;;;;;;10372081;28;20046;-84
2022/01/01 20:56:57;;;;;;;5.53;4.28;;;;;;;;;;10344472;28;20023;-86
2022/01/01 21:02:06;;;;;;;5.57;3.72;;;;;;;;;;10336904;28;20150;-86
2022/01/01 21:07:13;;;;;;;4.35;3.15;;;;;;;;;;10328006;28;20039;-87
2022/01/01 21:12:15;;;;;;;3.10;2.22;;;;;;;;;;10307208;28;20042;-86
2022/01/01 21:17:20;;;;;;;2.55;2.17;;;;;;;;;;10316646;28;20062;-86
2022/01/01 21:22:23;;;;;;;2.67;2.05;;;;;;;;;;10320151;28;20044;-88
2022/01/01 21:27:36;;;;;;;2.67;2.00;;;;;;;;;;10338121;28;20115;-86
2022/01/01 21:32:46;;;;;;;3.05;2.33;;;;;;;;;;10338816;28;20042;-88
2022/01/01 21:37:48;;;;;;;3.28;2.30;;;;;;;;;;10321209;28;20038;-85
2022/01/01 21:42:50;;;;;;;3.25;2.47;;;;;;;;;;10321108;28;20058;-86
2022/01/01 21:47:57;;;;;;;3.28;2.30;;;;;;;;;;10329106;28;20050;-86
2022/01/01 21:53:02;;;;;;;2.70;2.13;;;;;;;;;;10329723;28;20464;-86
2022/01/01 21:58:06;;;;;;;2.47;1.95;;;;;;;;;;10335840;28;20346;-86
2022/01/01 22:03:07;;;;;;;2.92;2.28;;;;;;;;;;10302683;28;20426;-86
2022/01/01 22:08:09;;;;;;;3.28;2.70;;;;;;;;;;10318545;28;20043;-86
2022/01/01 22:13:12;;;;;;;2.58;2.15;;;;;;;;;;10323528;28;20034;-86
2022/01/01 22:18:16;;;;;;;4.20;2.80;;;;;;;;;;10335625;28;20519;-86
2022/01/01 22:23:22;;;;;;;3.72;2.80;;;;;;;;;;10318897;28;20129;-86
2022/01/01 22:28:23;;;;;;;2.80;2.08;;;;;;;;;;10319374;28;20038;-86
2022/01/01 22:33:24;;;;;;;2.65;1.98;;;;;;;;;;10318569;28;20050;-86
2022/01/01 22:38:26;;;;;;;2.35;1.70;;;;;;;;;;10317930;28;20038;-85
2022/01/01 22:43:38;;;;;;;3.20;2.00;;;;;;;;;;10318276;28;20027;-86
2022/01/01 22:48:39;;;;;;;2.13;1.77;;;;;;;;;;10321783;28;20069;-86
2022/01/01 22:53:41;;;;;;;2.53;2.00;;;;;;;;;;10316921;28;20125;-86
2022/01/01 22:58:43;;;;;;;3.25;2.13;;;;;;;;;;10317771;28;20031;-86
2022/01/01 23:03:49;;;;;;;2.15;1.80;;;;;;;;;;10317252;28;20034;-86
2022/01/01 23:08:50;;;;;;;2.50;1.73;;;;;;;;;;10316995;28;20038;-86
2022/01/01 23:13:53;;;;;;;3.33;2.30;;;;;;;;;;10318127;28;20119;-86
2022/01/01 23:19:05;;;;;;;2.85;2.25;;;;;;;;;;10340405;28;20031;-86
2022/01/01 23:24:11;;;;;;;3.42;1.90;;;;;;;;;;10324586;28;20042;-86
2022/01/01 23:29:33;;;;;;;2.05;1.80;;;;;;;;;;10323974;28;20050;-86
2022/01/01 23:34:44;;;;;;;2.13;1.70;;;;;;;;;;10339404;28;20046;-86
2022/01/01 23:39:47;;;;;;;;;;;;;;;;;;10324911;28;20046;-85
2022/01/01 23:44:48;;;;;;;3.03;1.90;;;;;;;;;;10341886;28;19901;-84
2022/01/01 23:49:49;;;;;;;2.63;1.70;;;;;;;;;;10349036;28;20051;-86
2022/01/01 23:54:53;;;;;;;2.30;1.70;;;;;;;;;;10365603;28;20046;-85
